Time;durP1;ratioP1;P1;durP2;ratioP2;P2;SDS_P1;SDS_P2;PMS_P1;PMS_P2;Temp;Humidity;BMP_temperature;BMP_pressure;BME280_temperature;BME280_humidity;BME280_pressure;Samples;Min_cycle;Max_cycle;Signal;HPM_P1;HPM_P2
2022/05/09 00:00:10;;;;;;;11.97;3.40;;;;;;;18.53;42.74;102646.16;5085660;28;20067;-49
2022/05/09 00:02:38;;;;;;;14.35;3.53;;;;;;;18.50;42.79;102641.16;5078898;28;20104;-55
2022/05/09 00:05:05;;;;;;;;;;;;;;;18.68;42.45;102645.16;5091167;28;20040;-55
2022/05/09 00:07:31;;;;;;;15.07;3.08;;;;;;;18.74;42.17;102647.91;5080270;28;19912;-52
2022/05/09 00:09:56;;;;;;;10.43;2.67;;;;;;;18.31;43.15;102642.78;5084298;28;20104;-54
2022/05/09 00:12:22;;;;;;;16.00;3.13;;;;;;;18.58;42.76;102642.84;5087611;28;20036;-53
2022/05/09 00:14:47;;;;;;;17.87;2.90;;;;;;;18.08;43.73;102635.84;5078007;28;20063;-55
2022/05/09 00:17:13;;;;;;;13.60;3.50;;;;;;;18.16;43.90;102634.81;5081950;28;20269;-51
2022/05/09 00:19:38;;;;;;;15.37;4.53;;;;;;;18.12;43.94;102634.38;5090882;28;20056;-53
2022/05/09 00:22:04;;;;;;;13.77;3.33;;;;;;;18.09;44.01;102632.09;5088960;28;20040;-54
2022/05/09 00:24:29;;;;;;;16.88;3.33;;;;;;;18.13;44.26;102619.81;5083631;28;20033;-53
2022/05/09 00:26:57;;;;;;;10.60;2.75;;;;;;;18.11;44.43;102624.59;5094147;28;20045;-55
2022/05/09 00:29:23;;;;;;;15.52;3.75;;;;;;;17.97;44.66;102622.84;5082735;28;20060;-52
2022/05/09 00:31:50;;;;;;;;;;;;;;;17.91;44.94;102625.31;5089485;28;20060;-57
2022/05/09 00:34:17;;;;;;;10.98;2.38;;;;;;;18.07;44.89;102623.34;5077785;28;19916;-53
2022/05/09 00:36:44;;;;;;;20.50;3.15;;;;;;;18.17;44.83;102620.25;5077852;28;20041;-53
2022/05/09 00:39:10;;;;;;;13.82;2.53;;;;;;;18.10;44.96;102614.81;5094189;28;20029;-51
2022/05/09 00:41:40;;;;;;;13.67;3.07;;;;;;;17.94;45.29;102621.38;5084402;28;20028;-52
2022/05/09 00:44:14;;;;;;;13.32;3.05;;;;;;;17.85;45.51;102612.59;5086904;28;20277;-53
2022/05/09 00:46:43;;;;;;;19.95;3.83;;;;;;;17.97;45.39;102614.72;5093243;28;20044;-54
2022/05/09 00:49:13;;;;;;;12.40;3.00;;;;;;;17.67;46.07;102615.84;5080834;28;20091;-51
2022/05/09 00:51:39;;;;;;;21.55;3.22;;;;;;;17.78;46.15;102617.97;5089813;28;20096;-49
2022/05/09 00:54:06;;;;;;;12.65;3.15;;;;;;;17.61;46.58;102613.91;5077559;28;20044;-49
2022/05/09 00:56:41;;;;;;;18.52;3.70;;;;;;;17.70;46.60;102614.59;5077274;28;20037;-52
2022/05/09 00:59:11;;;;;;;14.85;3.85;;;;;;;17.60;47.13;102604.97;5093906;28;20045;-52
2022/05/09 01:01:39;;;;;;;9.45;2.83;;;;;;;17.57;47.17;102613.50;5084135;28;20127;-49
2022/05/09 01:04:09;;;;;;;15.95;3.35;;;;;;;17.50;47.65;102609.91;5086726;28;20029;-50
2022/05/09 01:06:36;;;;;;;13.50;4.13;;;;;;;18.26;44.50;102604.66;5092150;28;20082;-55
2022/05/09 01:09:02;;;;;;;10.52;2.80;;;;;;;17.60;47.20;102602.28;5080224;28;20032;-54
2022/05/09 01:11:28;;;;;;;14.60;3.47;;;;;;;17.49;47.92;102602.81;5091683;28;20033;-53
2022/05/09 01:14:02;;;;;;;16.30;3.00;;;;;;;17.11;49.07;102601.31;5077061;28;20798;-51
2022/05/09 01:16:28;;;;;;;17.33;3.40;;;;;;;18.78;48.78;102596.81;5077021;28;20032;-54
2022/05/09 01:18:58;;;;;;;11.88;3.00;;;;;;;17.43;48.41;102600.91;5093513;28;20059;-53
2022/05/09 01:21:38;;;;;;;15.75;3.95;;;;;;;17.45;48.03;102598.84;5081688;28;20036;-52
2022/05/09 01:24:12;;;;;;;13.95;3.13;;;;;;;16.95;50.25;102597.00;5086570;28;20037;-49
2022/05/09 01:26:38;;;;;;;12.30;3.30;;;;;;;16.83;51.11;102588.59;5091578;28;20070;-50
2022/05/09 01:29:08;;;;;;;17.60;3.93;;;;;;;16.76;51.67;102591.22;5080013;28;20048;-50
2022/05/09 01:31:36;;;;;;;25.48;4.32;;;;;;;16.90;51.60;102584.06;5090607;28;20031;-49
2022/05/09 01:34:02;;;;;;;11.32;3.67;;;;;;;17.47;49.25;102581.41;5086713;28;20092;-49
2022/05/09 01:36:32;;;;;;;20.50;4.13;;;;;;;17.18;50.81;102574.34;5082913;28;20040;-48
2022/05/09 01:39:02;;;;;;;12.13;3.72;;;;;;;17.04;51.24;102578.81;5092961;28;20483;-49
2022/05/09 01:41:29;;;;;;;21.52;4.10;;;;;;;16.92;51.64;102581.19;5081749;28;20039;-51
2022/05/09 01:43:55;;;;;;;10.77;3.03;;;;;;;16.82;52.28;102586.94;5087451;28;20047;-51
2022/05/09 01:46:26;;;;;;;18.67;3.80;;;;;;;16.75;52.57;102586.88;5088955;28;20028;-48
2022/05/09 01:51:39;;;;;;;17.85;3.83;;;;;;;16.89;52.49;102582.41;5089121;28;20053;-50
2022/05/09 01:54:05;;;;;;;18.77;3.45;;;;;;;17.18;51.75;102585.16;5076118;28;20040;-48
2022/05/09 01:56:33;;;;;;;9.07;3.25;;;;;;;16.81;52.60;102579.00;5090074;28;20032;-51
2022/05/09 01:59:00;;;;;;;18.45;3.80;;;;;;;16.69;53.03;102581.41;5079424;28;20037;-51
2022/05/09 02:01:28;;;;;;;14.88;3.58;;;;;;;16.63;53.62;102586.53;5091277;28;20059;-51
2022/05/09 02:03:55;;;;;;;17.77;3.47;;;;;;;16.64;53.72;102590.09;5084895;28;20100;-51
2022/05/09 02:06:23;;;;;;;17.65;3.40;;;;;;;16.63;54.08;102591.13;5083522;28;20056;-50
2022/05/09 02:08:49;;;;;;;14.23;3.72;;;;;;;16.64;54.42;102590.09;5092492;28;20047;-49
2022/05/09 02:11:15;;;;;;;11.37;2.90;;;;;;;16.59;54.62;102587.13;5075507;28;20112;-51
2022/05/09 02:13:41;;;;;;;12.18;3.28;;;;;;;17.61;51.90;102585.00;5075902;28;20033;-49
2022/05/09 02:16:08;;;;;;;14.23;3.95;;;;;;;16.73;53.96;102583.53;5076016;28;20048;-48
2022/05/09 02:18:35;;;;;;;12.48;3.45;;;;;;;16.65;54.71;102583.66;5090151;28;20051;-52
2022/05/09 02:21:00;;;;;;;15.43;3.40;;;;;;;16.41;55.97;102574.91;5078929;28;20051;-54
2022/05/09 02:23:26;;;;;;;10.07;3.33;;;;;;;16.52;56.03;102583.53;5090990;28;20022;-53
2022/05/09 02:25:52;;;;;;;15.50;3.60;;;;;;;16.59;55.96;102581.72;5084141;28;20139;-48
2022/05/09 02:28:17;;;;;;;15.68;4.45;;;;;;;16.56;55.96;102582.97;5083822;28;20064;-52
2022/05/09 02:30:43;;;;;;;10.18;3.45;;;;;;;16.44;56.07;102585.34;5091133;28;20060;-54
2022/05/09 02:33:10;;;;;;;12.60;3.50;;;;;;;16.28;57.17;102574.78;5076744;28;20047;-54
2022/05/09 02:35:38;;;;;;;16.00;3.90;;;;;;;16.31;57.24;102574.38;5075604;28;20033;-50
2022/05/09 02:38:04;;;;;;;23.90;4.10;;;;;;;16.29;57.63;102582.69;5084737;28;20036;-50
2022/05/09 02:40:33;;;;;;;16.43;3.90;;;;;;;16.20;58.19;102575.72;5075584;28;20122;-48
2022/05/09 02:42:59;;;;;;;20.38;3.88;;;;;;;16.10;59.09;102575.19;5077463;28;20063;-51
2022/05/09 02:45:26;;;;;;;13.95;3.60;;;;;;;16.23;58.44;102579.91;5082939;28;20028;-48
2022/05/09 02:47:52;;;;;;;19.65;4.13;;;;;;;16.15;58.99;102576.31;5083413;28;20066;-48
2022/05/09 02:50:21;;;;;;;19.20;3.42;;;;;;;16.13;59.26;102570.25;5082747;28;20072;-48
2022/05/09 02:52:47;;;;;;;13.50;3.13;;;;;;;16.10;59.60;102567.94;5090672;28;20033;-54
2022/05/09 02:55:13;;;;;;;16.40;4.28;;;;;;;16.04;59.77;102557.91;5078368;28;20036;-49
2022/05/09 02:57:39;;;;;;;15.00;4.17;;;;;;;15.98;60.28;102564.88;5088663;28;20063;-49
2022/05/09 03:00:08;;;;;;;11.40;3.92;;;;;;;16.02;60.69;102562.66;5075126;28;20053;-53
2022/05/09 03:02:33;;;;;;;15.77;3.45;;;;;;;15.91;61.19;102558.59;5070734;28;20053;-52
2022/05/09 03:04:59;;;;;;;13.33;3.93;;;;;;;15.80;61.84;102557.16;5082844;28;20063;-52
2022/05/09 03:07:24;;;;;;;20.00;4.70;;;;;;;15.94;61.31;102552.81;5090432;28;20048;-53
2022/05/09 03:09:50;;;;;;;17.80;4.32;;;;;;;15.88;61.92;102551.69;5082764;28;20086;-48
2022/05/09 03:12:19;;;;;;;14.23;3.37;;;;;;;15.72;62.68;102550.00;5083288;28;20041;-51
2022/05/09 03:14:47;;;;;;;20.55;4.57;;;;;;;15.62;64.32;102552.19;5090107;28;20380;-50
2022/05/09 03:17:14;;;;;;;16.15;4.47;;;;;;;15.89;63.33;102553.38;5077889;28;20101;-51
2022/05/09 03:19:39;;;;;;;14.63;3.90;;;;;;;15.80;63.67;102550.94;5088212;28;20036;-54
2022/05/09 03:22:05;;;;;;;14.65;4.78;;;;;;;15.80;63.16;102554.47;5084833;28;20114;-48
2022/05/09 03:24:31;;;;;;;17.55;5.57;;;;;;;15.78;63.60;102551.13;5081119;28;20033;-48
2022/05/09 03:26:59;;;;;;;25.50;5.00;;;;;;;15.77;63.56;102542.19;5082830;28;20040;-52
2022/05/09 03:29:25;;;;;;;13.38;4.13;;;;;;;15.69;64.25;102544.19;5088800;28;20059;-53
2022/05/09 03:31:54;;;;;;;14.40;4.10;;;;;;;15.47;65.96;102546.81;5082586;28;20036;-48
2022/05/09 03:34:20;;;;;;;15.95;4.25;;;;;;;15.49;66.34;102544.75;5082367;28;20041;-51
2022/05/09 03:36:47;;;;;;;22.67;4.30;;;;;;;15.55;65.89;102541.31;5090000;28;20067;-51
2022/05/09 03:39:13;;;;;;;18.02;4.72;;;;;;;15.45;66.97;102548.81;5077725;28;20067;-52
2022/05/09 03:41:41;;;;;;;12.85;4.15;;;;;;;15.56;66.24;102548.38;5087628;28;20048;-48
2022/05/09 03:44:06;;;;;;;15.03;4.10;;;;;;;15.69;65.53;102542.31;5084608;28;20092;-51
2022/05/09 03:46:32;;;;;;;16.17;4.23;;;;;;;15.85;64.45;102548.53;5080809;28;20070;-48
2022/05/09 03:49:01;;;;;;;16.33;5.00;;;;;;;15.65;65.70;102538.31;5090544;28;20101;-50
2022/05/09 03:51:26;;;;;;;15.80;4.07;;;;;;;15.56;66.27;102542.97;5078076;28;20052;-53
2022/05/09 03:53:52;;;;;;;10.52;4.05;;;;;;;15.61;65.87;102548.63;5086036;28;20069;-51
2022/05/09 03:56:17;;;;;;;21.53;3.93;;;;;;;15.57;67.05;102543.78;5074000;28;20037;-52
2022/05/09 03:58:43;;;;;;;15.35;4.65;;;;;;;15.50;67.39;102546.41;5089057;28;20048;-51
2022/05/09 04:01:11;;;;;;;20.60;5.03;;;;;;;16.07;65.48;102541.31;5077200;28;20025;-52
2022/05/09 04:03:37;;;;;;;18.05;5.20;;;;;;;15.81;65.50;102542.66;5088561;28;20036;-49
2022/05/09 04:06:04;;;;;;;11.65;4.28;;;;;;;15.94;64.63;102543.88;5083681;28;20042;-51
2022/05/09 04:08:31;;;;;;;20.83;5.20;;;;;;;15.88;64.60;102548.13;5080889;28;20036;-53
2022/05/09 04:10:57;;;;;;;14.68;4.75;;;;;;;15.89;65.31;102534.47;5090749;28;20048;-52
2022/05/09 04:13:22;;;;;;;17.67;5.73;;;;;;;15.78;66.01;102534.94;5074086;28;20045;-52
2022/05/09 04:18:41;;;;;;;21.27;5.90;;;;;;;15.79;66.73;102525.84;5088048;28;20043;-48
2022/05/09 04:21:09;;;;;;;24.30;5.15;;;;;;;15.68;68.30;102523.59;5076555;28;20041;-52
2022/05/09 04:23:34;;;;;;;17.83;5.53;;;;;;;15.62;69.17;102534.13;5064884;28;20092;-52
2022/05/09 04:26:01;;;;;;;33.53;6.20;;;;;;;15.57;69.64;102525.75;5085217;28;20098;-52
2022/05/09 04:28:27;;;;;;;22.80;5.28;;;;;;;15.61;70.04;102527.06;5086675;28;20096;-53
2022/05/09 04:30:56;;;;;;;21.67;5.15;;;;;;;15.76;69.29;102526.22;5077362;28;20056;-51
2022/05/09 04:33:21;;;;;;;19.67;4.70;;;;;;;16.03;67.57;102521.16;5090417;28;20040;-52
2022/05/09 04:35:47;;;;;;;19.85;5.53;;;;;;;16.79;63.38;102519.78;5074022;28;20032;-52
2022/05/09 04:38:22;;;;;;;20.40;5.07;;;;;;;15.76;69.59;102523.50;5084869;28;20107;-53
2022/05/09 04:40:51;;;;;;;18.80;5.97;;;;;;;15.79;70.82;102528.53;5078276;28;20032;-52
2022/05/09 04:43:19;;;;;;;20.75;5.30;;;;;;;15.74;71.83;102530.97;5090403;28;20088;-51
2022/05/09 04:45:45;;;;;;;16.58;5.72;;;;;;;15.97;70.68;102524.63;5080784;28;20037;-51
2022/05/09 04:48:10;;;;;;;23.53;7.40;;;;;;;15.80;72.48;102521.25;5083764;28;20048;-49
2022/05/09 04:50:35;;;;;;;23.93;6.60;;;;;;;15.97;71.98;102525.44;5087450;28;20297;-51
2022/05/09 04:53:02;;;;;;;24.63;6.83;;;;;;;15.97;72.77;102521.91;5076390;28;20029;-51
2022/05/09 04:55:30;;;;;;;22.52;6.38;;;;;;;15.97;73.10;102520.03;5073923;28;20035;-53
2022/05/09 04:57:56;;;;;;;19.57;5.70;;;;;;;16.02;74.04;102516.78;5081995;28;20068;-52
2022/05/09 05:00:25;;;;;;;17.45;5.68;;;;;;;15.97;74.79;102519.22;5082102;28;20099;-53
2022/05/09 05:02:51;;;;;;;17.27;5.20;;;;;;;16.19;74.47;102520.91;5093056;28;20053;-49
2022/05/09 05:05:16;;;;;;;17.23;5.70;;;;;;;16.19;75.10;102517.38;5080584;28;20052;-50
2022/05/09 05:07:42;;;;;;;22.20;5.55;;;;;;;16.09;76.63;102528.47;5091056;28;20089;-53
2022/05/09 05:10:08;;;;;;;11.23;5.30;;;;;;;16.10;76.44;102522.03;5087254;28;20120;-52
2022/05/09 05:12:34;;;;;;;27.67;6.35;;;;;;;16.19;75.95;102520.91;5083697;28;20040;-52
2022/05/09 05:15:00;;;;;;;25.20;5.53;;;;;;;16.26;75.91;102520.13;5093597;28;20040;-50
2022/05/09 05:17:26;;;;;;;20.83;4.75;;;;;;;16.23;75.99;102513.25;5081201;28;20028;-52
2022/05/09 05:19:52;;;;;;;19.43;6.40;;;;;;;16.25;75.94;102515.78;5089501;28;20044;-52
2022/05/09 05:22:17;;;;;;;20.23;5.33;;;;;;;16.38;74.83;102515.91;5087915;28;20036;-54
2022/05/09 05:24:44;;;;;;;20.77;5.68;;;;;;;16.32;75.66;102509.41;5082216;28;20262;-51
2022/05/09 05:27:12;;;;;;;16.00;5.60;;;;;;;16.33;76.11;102507.53;5093318;28;20048;-51
2022/05/09 05:29:39;;;;;;;21.55;5.60;;;;;;;16.43;75.56;102509.91;5082475;28;20058;-52
2022/05/09 05:32:24;;;;;;;16.05;5.53;;;;;;;16.45;75.55;102508.69;5087525;28;20041;-52
2022/05/09 05:34:50;;;;;;;27.25;6.28;;;;;;;16.49;75.97;102507.28;5076384;28;20048;-53
2022/05/09 05:37:17;;;;;;;17.23;5.93;;;;;;;16.66;75.12;102508.84;5093270;28;20056;-53
2022/05/09 05:39:46;;;;;;;22.83;5.53;;;;;;;16.91;73.42;102517.38;5082612;28;20040;-52
2022/05/09 05:42:15;;;;;;;17.38;6.18;;;;;;;16.97;73.90;102515.75;5086564;28;20033;-50
2022/05/09 05:44:41;;;;;;;28.77;6.22;;;;;;;16.93;75.14;102515.31;5090780;28;20036;-50
2022/05/09 05:47:09;;;;;;;21.75;6.55;;;;;;;16.96;75.54;102514.91;5068959;28;20032;-53
2022/05/09 05:49:37;;;;;;;24.05;6.25;;;;;;;17.11;75.40;102514.00;5065519;28;20033;-53
2022/05/09 05:52:04;;;;;;;19.10;6.63;;;;;;;17.15;75.99;102509.88;5074006;28;20036;-53
2022/05/09 05:54:34;;;;;;;19.25;6.65;;;;;;;17.36;75.79;102514.34;5076086;28;20049;-54
2022/05/09 05:57:02;;;;;;;22.55;6.50;;;;;;;17.27;77.07;102510.97;5065506;28;20053;-51
2022/05/09 05:59:27;;;;;;;15.35;6.20;;;;;;;17.19;78.59;102511.13;5092165;28;20044;-54
2022/05/09 06:01:58;;;;;;;21.65;6.43;;;;;;;17.23;78.49;102514.28;5066591;28;20037;-50
2022/05/09 06:04:24;;;;;;;13.15;4.90;;;;;;;17.46;72.47;102512.13;5079512;28;20028;-51
2022/05/09 06:06:50;;;;;;;16.45;5.15;;;;;;;17.61;69.28;102514.66;5080737;28;20037;-51
2022/05/09 06:09:17;;;;;;;13.30;5.15;;;;;;;17.71;68.22;102510.75;5092562;28;20096;-52
2022/05/09 06:11:43;;;;;;;26.23;6.30;;;;;;;17.85;66.63;102515.16;5068473;28;20040;-53
2022/05/09 06:14:11;;;;;;;22.95;4.95;;;;;;;17.92;64.62;102516.00;5066510;28;20133;-51
2022/05/09 06:16:37;;;;;;;15.85;4.72;;;;;;;18.01;62.50;102524.81;5058757;28;20041;-54
2022/05/09 06:19:05;;;;;;;11.43;5.13;;;;;;;18.17;61.03;102523.59;5072152;28;20104;-51
2022/05/09 06:21:34;;;;;;;19.70;5.70;;;;;;;18.31;58.49;102523.63;5079109;28;20028;-53
2022/05/09 06:24:04;;;;;;;19.08;5.30;;;;;;;18.40;57.10;102526.97;5071811;28;20021;-53
2022/05/09 06:26:30;;;;;;;21.55;4.63;;;;;;;18.44;57.14;102529.03;5074927;28;20033;-51
2022/05/09 06:28:56;;;;;;;16.35;4.68;;;;;;;18.55;55.13;102518.66;5077485;28;20097;-54
2022/05/09 06:31:21;;;;;;;14.27;4.47;;;;;;;18.45;56.04;102529.91;5090553;28;20063;-55
2022/05/09 06:33:46;;;;;;;17.80;5.50;;;;;;;18.41;55.50;102528.66;5075414;28;20120;-53
2022/05/09 06:36:12;;;;;;;15.40;4.93;;;;;;;18.32;56.01;102528.00;5071605;28;20312;-51
2022/05/09 06:38:37;;;;;;;19.37;6.07;;;;;;;18.38;55.76;102524.47;5081001;28;20071;-52
2022/05/09 06:41:03;;;;;;;24.17;6.57;;;;;;;18.56;55.53;102515.72;5090777;28;20048;-51
2022/05/09 06:43:30;;;;;;;18.48;6.30;;;;;;;18.61;55.50;102518.66;5073171;28;20273;-49
2022/05/09 06:45:57;;;;;;;19.70;5.78;;;;;;;18.60;55.50;102513.44;5087062;28;20062;-54
2022/05/09 06:48:22;;;;;;;29.70;6.40;;;;;;;18.82;55.27;102511.34;5085314;28;20041;-51
2022/05/09 06:50:48;;;;;;;15.02;5.75;;;;;;;18.91;55.14;102515.50;5079817;28;20121;-56
2022/05/09 06:53:13;;;;;;;14.85;5.28;;;;;;;18.87;55.43;102510.69;5074988;28;20096;-54
2022/05/09 06:55:39;;;;;;;19.40;6.33;;;;;;;18.86;55.76;102514.44;5063169;28;20128;-56
2022/05/09 06:58:07;;;;;;;15.20;5.70;;;;;;;19.14;55.04;102513.38;5072515;28;20273;-52
2022/05/09 07:00:33;;;;;;;16.45;7.10;;;;;;;19.25;55.23;102512.75;5081488;28;20057;-56
2022/05/09 07:02:59;;;;;;;14.77;5.25;;;;;;;19.06;54.96;102509.06;5084372;28;20036;-51
2022/05/09 07:05:25;;;;;;;28.00;12.07;;;;;;;18.73;56.16;102510.72;5091050;28;20056;-57
2022/05/09 07:07:50;;;;;;;16.63;5.82;;;;;;;19.17;55.43;102511.09;5080992;28;20066;-54
2022/05/09 07:10:17;;;;;;;23.60;6.13;;;;;;;19.44;54.36;102511.00;5083970;28;20037;-53
2022/05/09 07:12:49;;;;;;;22.27;5.37;;;;;;;19.30;55.04;102512.13;5088924;28;20047;-56
2022/05/09 07:15:22;;;;;;;21.40;6.00;;;;;;;19.45;54.65;102515.38;5075619;28;20293;-55
2022/05/09 07:17:50;;;;;;;21.80;6.97;;;;;;;19.47;54.15;102521.44;5080802;28;20307;-55
2022/05/09 07:20:17;;;;;;;16.37;5.90;;;;;;;19.55;52.13;102524.97;5084026;28;20284;-54
2022/05/09 07:22:45;;;;;;;26.23;9.03;;;;;;;19.30;54.04;102517.53;5088295;28;20337;-55
2022/05/09 07:25:13;;;;;;;19.17;7.17;;;;;;;19.97;52.41;102521.84;5077011;28;20278;-53
2022/05/09 07:27:42;;;;;;;23.13;5.63;;;;;;;20.00;51.94;102518.72;5089205;28;20032;-53
2022/05/09 07:30:15;;;;;;;16.33;5.13;;;;;;;20.17;51.41;102511.72;5083255;28;20269;-54
2022/05/09 07:32:42;;;;;;;14.90;5.87;;;;;;;20.14;51.78;102516.72;5076105;28;20265;-54
2022/05/09 07:35:10;;;;;;;12.10;5.35;;;;;;;20.36;51.79;102517.22;5089029;28;20289;-52
2022/05/09 07:37:36;;;;;;;13.50;5.83;;;;;;;20.40;51.03;102512.16;5076597;28;20048;-55
2022/05/09 07:40:03;;;;;;;17.40;5.95;;;;;;;20.89;50.41;102512.41;5080879;28;20277;-53
2022/05/09 07:42:29;;;;;;;21.70;6.47;;;;;;;20.75;50.09;102520.63;5077618;28;20048;-52
2022/05/09 07:44:56;;;;;;;19.23;7.45;;;;;;;20.23;51.06;102517.31;5069215;28;20277;-51
2022/05/09 07:47:23;;;;;;;16.13;5.47;;;;;;;20.49;49.99;102516.28;5073244;28;20071;-55
2022/05/09 07:49:49;;;;;;;23.43;7.50;;;;;;;20.20;50.82;102513.97;5070480;28;20273;-52
2022/05/09 07:52:14;;;;;;;13.65;6.47;;;;;;;20.40;50.58;102518.44;5071564;28;20270;-53
2022/05/09 07:54:39;;;;;;;19.83;6.43;;;;;;;20.61;50.73;102521.84;5071623;28;20048;-52
2022/05/09 07:57:05;;;;;;;16.97;5.60;;;;;;;20.89;50.34;102517.84;5065910;28;20067;-52
2022/05/09 07:59:31;;;;;;;17.15;6.03;;;;;;;20.95;49.66;102516.94;5073294;28;20041;-54
2022/05/09 08:01:56;;;;;;;13.83;5.33;;;;;;;21.02;49.56;102508.72;5067131;28;20041;-53
2022/05/09 08:04:22;;;;;;;21.27;6.10;;;;;;;21.21;48.60;102514.97;5065487;28;20052;-51
2022/05/09 08:06:47;;;;;;;22.85;8.57;;;;;;;21.43;48.87;102509.91;5066501;28;20029;-52
2022/05/09 08:09:14;;;;;;;14.97;5.77;;;;;;;21.52;47.84;102515.88;5055728;28;20104;-54
2022/05/09 08:11:39;;;;;;;;;;;;;;;21.32;48.57;102522.41;5088381;28;20047;-52
2022/05/09 08:14:07;;;;;;;18.50;5.60;;;;;;;21.48;47.86;102517.41;5073446;28;19943;-52
2022/05/09 08:16:33;;;;;;;18.90;6.27;;;;;;;21.61;47.24;102522.66;5073313;28;20274;-51
2022/05/09 08:19:04;;;;;;;15.33;6.03;;;;;;;21.72;47.03;102523.81;5090190;28;20287;-52
2022/05/09 08:21:30;;;;;;;13.55;6.10;;;;;;;21.78;46.66;102524.81;5060755;28;20329;-51
2022/05/09 08:23:58;;;;;;;29.70;12.43;;;;;;;22.01;46.64;102525.94;5074217;28;20022;-51
2022/05/09 08:26:23;;;;;;;18.10;6.00;;;;;;;22.27;46.08;102524.72;5066660;28;20289;-50
2022/05/09 08:28:50;;;;;;;21.58;7.88;;;;;;;22.18;46.08;102518.78;5067440;28;20270;-52
2022/05/09 08:31:18;;;;;;;21.87;6.37;;;;;;;22.37;46.18;102518.69;5065920;28;20419;-54
2022/05/09 08:33:46;;;;;;;14.73;5.73;;;;;;;22.37;45.84;102515.94;5061033;28;20271;-48
2022/05/09 08:36:45;;;;;;;16.57;6.00;;;;;;;22.60;45.29;102517.06;5066837;28;20270;-49
2022/05/09 08:38:58;;;;;;;44.47;19.33;;;;;;;22.67;44.38;102523.25;5062272;28;20274;-53
2022/05/09 08:41:26;;;;;;;12.32;5.63;;;;;;;22.93;43.93;102510.22;5078063;28;20363;-51
2022/05/09 08:44:39;;;;;;;19.13;8.70;;;;;;;23.02;43.24;102521.59;5083484;28;20104;-53
2022/05/09 08:47:15;;;;;;;14.23;5.97;;;;;;;23.18;43.54;102523.59;5057307;28;20275;-49
2022/05/09 08:50:11;;;;;;;21.08;5.88;;;;;;;23.40;42.85;102522.94;5071597;28;20276;-52
2022/05/09 08:52:45;;;;;;;19.80;6.10;;;;;;;23.36;42.04;102523.69;5069849;28;20504;-51
2022/05/09 08:55:13;;;;;;;21.40;8.27;;;;;;;23.45;41.98;102520.34;5067799;28;20290;-53
2022/05/09 08:57:50;;;;;;;15.03;5.80;;;;;;;23.60;41.52;102519.81;5065339;28;20281;-52
2022/05/09 09:00:18;;;;;;;27.03;9.10;;;;;;;23.48;42.24;102517.13;5084353;28;20307;-49
2022/05/09 09:02:57;;;;;;;17.50;5.03;;;;;;;23.83;40.71;102517.22;5080103;28;20281;-49
2022/05/09 09:05:25;;;;;;;136.73;69.43;;;;;;;23.90;39.76;102517.91;5066759;28;20635;-49
2022/05/09 09:08:12;;;;;;;50.13;24.33;;;;;;;24.03;39.29;102508.63;5075883;28;20285;-49
2022/05/09 09:10:52;;;;;;;22.27;9.97;;;;;;;24.08;39.32;102505.97;5070677;28;20345;-50
2022/05/09 09:14:03;;;;;;;24.97;11.43;;;;;;;24.33;39.03;102510.19;5076667;28;20052;-50
2022/05/09 09:16:56;;;;;;;18.03;8.60;;;;;;;24.73;38.11;102511.94;5075545;28;20037;-53
2022/05/09 09:19:42;;;;;;;33.37;14.83;;;;;;;25.13;36.66;102518.25;5077944;28;20048;-50
2022/05/09 09:22:46;;;;;;;22.73;7.83;;;;;;;25.44;36.38;102509.59;5068902;28;20097;-50
2022/05/09 09:25:36;;;;;;;22.87;8.23;;;;;;;26.00;35.14;102508.53;5092166;28;20088;-53
2022/05/09 09:28:15;;;;;;;21.07;8.10;;;;;;;26.54;34.56;102501.31;5083857;28;20141;-49
2022/05/09 09:30:42;;;;;;;20.83;7.93;;;;;;;27.05;32.83;102512.63;5083074;28;20052;-54
2022/05/09 09:33:12;;;;;;;28.07;9.87;;;;;;;27.56;30.57;102508.41;5092846;28;20096;-53
2022/05/09 09:36:05;;;;;;;12.60;5.20;;;;;;;28.47;28.69;102496.94;5076056;28;20036;-52
2022/05/09 09:38:42;;;;;;;29.73;10.20;;;;;;;29.21;27.15;102498.38;5087570;28;20129;-51
2022/05/09 09:41:15;;;;;;;12.70;5.93;;;;;;;29.78;26.33;102506.34;5095755;28;20040;-51
2022/05/09 09:43:41;;;;;;;13.33;4.43;;;;;;;30.41;26.73;102507.47;5075540;28;20048;-53
2022/05/09 09:46:07;;;;;;;14.50;4.87;;;;;;;31.02;26.18;102510.69;5082037;28;20040;-53
2022/05/09 09:48:34;;;;;;;18.45;8.75;;;;;;;31.67;25.18;102505.69;5083965;28;20036;-54
2022/05/09 09:51:05;;;;;;;12.20;3.97;;;;;;;32.37;24.39;102497.66;5065299;28;20053;-56
2022/05/09 09:53:37;;;;;;;18.80;9.20;;;;;;;32.73;23.41;102512.75;5092317;28;20037;-55
2022/05/09 09:56:21;;;;;;;17.05;5.72;;;;;;;33.52;22.47;102504.47;5075107;28;20043;-53
2022/05/09 09:58:57;;;;;;;73.68;41.78;;;;;;;33.99;22.29;102499.44;5081616;28;20040;-58
2022/05/09 10:01:30;;;;;;;27.52;15.85;;;;;;;33.58;23.45;102498.50;5072846;28;20052;-59
2022/05/09 10:04:25;;;;;;;144.63;90.90;;;;;;;34.02;23.41;102498.00;5069826;28;20040;-59
2022/05/09 10:07:04;;;;;;;132.05;84.13;;;;;;;34.13;22.65;102487.47;5069624;28;20049;-60
2022/05/09 10:09:39;;;;;;;84.00;50.38;;;;;;;34.17;22.92;102494.84;5058585;28;20134;-60
2022/05/09 10:12:19;;;;;;;90.72;55.00;;;;;;;34.36;22.94;102485.44;5075596;28;20033;-60
2022/05/09 10:14:45;;;;;;;74.57;44.70;;;;;;;34.84;22.58;102488.59;5061867;28;20060;-60
2022/05/09 10:17:18;;;;;;;63.22;40.42;;;;;;;35.06;21.90;102495.16;5071047;28;20099;-59
2022/05/09 10:19:44;;;;;;;63.47;36.67;;;;;;;35.33;21.70;102488.50;5065302;28;20037;-57
2022/05/09 10:25:24;;;;;;;42.85;25.83;;;;;;;35.42;21.51;102480.16;5088009;28;20048;-58
2022/05/09 10:28:18;;;;;;;19.23;8.63;;;;;;;36.03;20.55;102476.53;5063337;28;20029;-59
2022/05/09 10:30:52;;;;;;;27.80;13.68;;;;;;;35.57;21.07;102476.06;5066053;28;20045;-59
2022/05/09 10:33:31;;;;;;;14.02;4.85;;;;;;;35.13;20.74;102468.53;5064800;28;20097;-58
2022/05/09 10:36:02;;;;;;;16.02;5.38;;;;;;;35.39;20.62;102466.91;5071829;28;20044;-60
2022/05/09 10:38:45;;;;;;;29.60;15.88;;;;;;;35.64;20.74;102467.25;5076076;28;20452;-59
2022/05/09 10:41:35;;;;;;;50.78;31.10;;;;;;;35.21;20.96;102468.88;5063881;28;20048;-59
2022/05/09 10:44:11;;;;;;;26.15;12.13;;;;;;;35.87;20.64;102465.06;5077679;28;20104;-58
2022/05/09 10:46:48;;;;;;;26.33;15.77;;;;;;;36.47;20.17;102465.19;5090439;28;20036;-58
2022/05/09 10:49:32;;;;;;;36.45;22.75;;;;;;;37.20;19.49;102465.25;5077743;28;20083;-58
2022/05/09 10:52:14;;;;;;;34.83;18.67;;;;;;;36.91;19.73;102464.13;5087447;28;20083;-61
2022/05/09 10:54:42;;;;;;;52.25;32.17;;;;;;;37.26;20.00;102464.72;5067346;28;20038;-58
2022/05/09 10:57:15;;;;;;;79.30;50.92;;;;;;;37.61;19.76;102460.00;5068410;28;20021;-58
2022/05/09 10:59:42;;;;;;;109.85;71.38;;;;;;;37.94;18.49;102459.94;5076012;28;20108;-57
2022/05/09 11:02:27;;;;;;;73.07;47.60;;;;;;;37.90;18.91;102458.22;5086652;28;20060;-59
2022/05/09 11:04:53;;;;;;;94.43;60.55;;;;;;;38.28;18.70;102445.91;5080040;28;20036;-59
2022/05/09 11:07:28;;;;;;;18.15;8.88;;;;;;;38.32;18.57;102446.03;5090600;28;20032;-57
2022/05/09 11:10:16;;;;;;;16.25;8.93;;;;;;;38.54;17.22;102447.59;5079000;28;20036;-57
2022/05/09 11:13:06;;;;;;;31.20;19.65;;;;;;;37.94;18.08;102439.59;5077077;28;20093;-58
2022/05/09 11:15:38;;;;;;;55.67;35.22;;;;;;;38.73;18.16;102428.19;5073731;28;20029;-57
2022/05/09 11:18:33;;;;;;;9.73;4.35;;;;;;;38.89;17.48;102424.66;5081631;28;20100;-56
2022/05/09 11:21:08;;;;;;;13.65;5.97;;;;;;;38.26;17.77;102423.09;5066989;28;20029;-55
2022/05/09 11:23:36;;;;;;;39.15;25.52;;;;;;;39.07;17.81;102428.00;5071042;28;20041;-56
2022/05/09 11:26:12;;;;;;;29.45;17.50;;;;;;;39.25;17.47;102428.53;5069671;28;20037;-56
2022/05/09 11:29:05;;;;;;;14.43;6.15;;;;;;;39.55;17.29;102422.56;5072794;28;20029;-57
2022/05/09 11:31:43;;;;;;;22.52;11.27;;;;;;;39.29;17.59;102412.66;5070885;28;20092;-57
2022/05/09 11:34:39;;;;;;;34.45;19.63;;;;;;;40.20;17.38;102414.19;5081257;28;20057;-56
2022/05/09 11:37:34;;;;;;;24.10;13.88;;;;;;;40.47;17.28;102414.44;5067682;28;20092;-57